Terminal Aerodrome Forecast
Issued by NWS

Home | Current Version | Previous Version | Text Only | Print | Product List | Glossary Off
Versions: 1 2 3 4 5 6 7 8 9 10 11 12 13 14 15 16 17 18 19 20 21 22

000
FTUS43 KGRB 302300
TAFATW
TAF
KATW 302333Z 3100/3124 22003KT P6SM SCT060 OVC080
     FM310800 22005KT P6SM SCT035 OVC050
      TEMPO 3109/3113 -SHSN BKN035
     FM311500 27005KT P6SM BKN035 OVC080
     FM312100 36009KT P6SM BKN035 OVC080=

USA.gov is the U.S. government's official web portal to all federal, state and local government web resources and services.